Time;durP1;ratioP1;P1;durP2;ratioP2;P2;SDS_P1;SDS_P2;PMS_P1;PMS_P2;Temp;Humidity;BMP_temperature;BMP_pressure;BME280_temperature;BME280_humidity;BME280_pressure;Samples;Min_cycle;Max_cycle;Signal;HPM_P1;HPM_P2
2023/04/04 00:00:10;;;;;;;6.20;1.95;;;10.40;66.90;;;;;;5014480;28;20022;-69
2023/04/04 00:02:36;;;;;;;4.05;1.80;;;10.40;67.10;;;;;;5014098;28;20022;-68
2023/04/04 00:05:02;;;;;;;4.22;1.92;;;10.40;67.10;;;;;;5014972;28;20026;-68
2023/04/04 00:07:28;;;;;;;5.00;1.85;;;10.30;67.00;;;;;;5015189;28;20022;-67
2023/04/04 00:09:53;;;;;;;2.35;1.60;;;10.40;67.00;;;;;;5014486;28;20045;-69
2023/04/04 00:12:19;;;;;;;3.85;1.80;;;10.30;67.20;;;;;;5014679;28;20037;-68
2023/04/04 00:14:45;;;;;;;6.32;1.98;;;10.30;67.10;;;;;;5014773;28;20462;-68
2023/04/04 00:17:10;;;;;;;5.25;2.38;;;10.30;67.40;;;;;;5014605;28;20112;-68
2023/04/04 00:19:36;;;;;;;3.45;2.00;;;10.30;67.40;;;;;;5014712;28;20030;-68
2023/04/04 00:22:02;;;;;;;5.28;2.00;;;10.30;67.60;;;;;;4996988;28;20022;-67
2023/04/04 00:24:28;;;;;;;5.20;1.60;;;10.30;67.80;;;;;;5014158;28;20058;-68
2023/04/04 00:26:54;;;;;;;5.78;1.65;;;10.30;67.60;;;;;;5014793;28;20052;-68
2023/04/04 00:29:19;;;;;;;4.07;1.63;;;10.30;67.60;;;;;;5014507;28;20034;-66
2023/04/04 00:31:45;;;;;;;3.03;1.50;;;10.30;67.60;;;;;;5014418;28;20077;-67
2023/04/04 00:34:11;;;;;;;5.53;1.73;;;10.20;67.70;;;;;;5014209;28;20026;-67
2023/04/04 00:36:36;;;;;;;4.15;1.95;;;10.20;67.50;;;;;;5014405;28;20022;-67
2023/04/04 00:39:02;;;;;;;5.20;1.75;;;10.20;67.70;;;;;;5014045;28;20100;-67
2023/04/04 00:41:28;;;;;;;3.33;1.60;;;10.20;67.90;;;;;;5014408;28;20109;-67
2023/04/04 00:43:55;;;;;;;4.65;1.73;;;10.10;67.50;;;;;;5014043;28;20029;-67
2023/04/04 00:46:22;;;;;;;3.40;1.65;;;10.10;67.70;;;;;;5013971;28;20041;-68
2023/04/04 00:48:50;;;;;;;5.13;2.30;;;10.20;67.80;;;;;;5014218;28;20026;-66
2023/04/04 00:51:15;;;;;;;3.85;1.55;;;10.10;67.80;;;;;;5014222;28;20033;-68
2023/04/04 00:53:45;;;;;;;3.53;1.77;;;10.10;67.90;;;;;;5013727;28;20101;-67
2023/04/04 00:56:11;;;;;;;5.05;1.75;;;10.10;67.70;;;;;;5013849;28;20026;-67
2023/04/04 00:58:37;;;;;;;3.28;1.60;;;10.00;67.60;;;;;;5013983;28;20032;-68
2023/04/04 01:01:02;;;;;;;5.25;1.83;;;10.00;67.90;;;;;;5013788;28;20026;-66
2023/04/04 01:03:28;;;;;;;5.50;1.70;;;10.10;68.10;;;;;;5013917;28;20029;-66
2023/04/04 01:05:54;;;;;;;3.95;1.55;;;10.00;68.10;;;;;;5013796;28;20030;-67
2023/04/04 01:08:24;;;;;;;4.15;1.65;;;10.00;68.00;;;;;;5013432;28;20033;-67
2023/04/04 01:10:50;;;;;;;5.00;2.05;;;10.10;67.90;;;;;;5013722;28;20112;-67
2023/04/04 01:13:16;;;;;;;3.88;1.75;;;10.00;68.00;;;;;;5013160;28;20061;-67
2023/04/04 01:15:42;;;;;;;2.65;1.50;;;10.00;68.20;;;;;;5013702;28;20045;-66
2023/04/04 01:18:10;;;;;;;3.65;1.83;;;9.90;68.00;;;;;;5013573;28;20030;-66
2023/04/04 01:20:43;;;;;;;5.28;2.03;;;9.90;68.10;;;;;;5013795;28;20029;-67
2023/04/04 01:23:10;;;;;;;4.13;2.00;;;10.00;68.30;;;;;;5013315;28;20025;-67
2023/04/04 01:25:35;;;;;;;5.45;1.88;;;9.90;68.20;;;;;;5013656;28;20109;-66
2023/04/04 01:28:01;;;;;;;5.90;1.88;;;9.90;68.10;;;;;;5013380;28;20053;-67
2023/04/04 01:30:31;;;;;;;3.80;1.83;;;9.90;68.20;;;;;;5013305;28;20034;-66
2023/04/04 01:33:04;;;;;;;5.47;1.67;;;9.90;68.20;;;;;;5013527;28;20026;-67
2023/04/04 01:35:56;;;;;;;2.92;1.25;;;9.80;68.20;;;;;;5013337;28;20442;-66
2023/04/04 01:38:36;;;;;;;6.40;1.77;;;9.90;68.40;;;;;;4992223;28;20056;-66
2023/04/04 01:41:05;;;;;;;3.15;1.48;;;9.80;68.20;;;;;;5013010;28;20029;-68
2023/04/04 01:43:31;;;;;;;5.32;1.65;;;9.90;68.40;;;;;;5013191;28;20026;-67
2023/04/04 01:45:58;;;;;;;3.33;1.55;;;9.80;68.30;;;;;;5013117;28;20026;-67
2023/04/04 01:48:23;;;;;;;4.78;1.80;;;9.80;68.50;;;;;;5013163;28;20034;-67
2023/04/04 01:50:49;;;;;;;4.60;2.03;;;9.70;68.50;;;;;;5012689;28;20037;-66
2023/04/04 01:53:14;;;;;;;6.75;1.50;;;9.70;68.80;;;;;;5013005;28;20025;-68
2023/04/04 01:55:41;;;;;;;3.08;1.70;;;9.80;68.80;;;;;;5013009;28;20030;-67
2023/04/04 01:58:06;;;;;;;5.85;2.28;;;9.70;68.90;;;;;;5012800;28;20018;-67
2023/04/04 02:00:32;;;;;;;4.15;1.65;;;9.70;68.70;;;;;;5012995;28;20040;-68
2023/04/04 02:02:59;;;;;;;4.95;1.80;;;9.70;69.00;;;;;;5013026;28;20075;-67
2023/04/04 02:05:24;;;;;;;4.55;1.60;;;9.70;69.00;;;;;;5013005;28;20026;-68
2023/04/04 02:07:50;;;;;;;4.40;1.88;;;9.70;68.90;;;;;;5012671;28;20088;-68
2023/04/04 02:10:16;;;;;;;4.38;1.80;;;9.60;68.70;;;;;;5012765;28;20284;-67
2023/04/04 02:12:42;;;;;;;5.80;1.70;;;9.60;68.40;;;;;;5012934;28;20028;-66
2023/04/04 02:15:08;;;;;;;3.88;1.50;;;9.60;68.40;;;;;;5012498;28;20014;-67
2023/04/04 02:17:34;;;;;;;3.40;1.75;;;9.60;68.60;;;;;;5012861;28;20041;-66
2023/04/04 02:20:00;;;;;;;6.15;2.03;;;9.60;68.50;;;;;;5012334;28;20109;-66
2023/04/04 02:22:26;;;;;;;3.90;1.60;;;9.60;68.60;;;;;;5012727;28;20038;-67
2023/04/04 02:24:52;;;;;;;5.38;2.08;;;9.60;68.80;;;;;;5013419;28;20026;-66
2023/04/04 02:27:18;;;;;;;3.45;1.80;;;9.60;68.80;;;;;;5015899;28;20029;-66
2023/04/04 02:29:44;;;;;;;3.28;1.20;;;9.60;68.90;;;;;;5014328;28;20026;-67
2023/04/04 02:32:09;;;;;;;6.10;1.65;;;9.50;69.10;;;;;;5016317;28;20049;-66
2023/04/04 02:34:35;;;;;;;4.35;1.70;;;9.60;68.90;;;;;;5016234;28;20049;-67
2023/04/04 02:37:01;;;;;;;4.30;1.50;;;9.60;68.90;;;;;;5016259;28;20033;-66
2023/04/04 02:39:26;;;;;;;4.72;1.80;;;9.50;69.00;;;;;;5016638;28;20018;-68
2023/04/04 02:41:52;;;;;;;3.92;1.60;;;9.50;68.70;;;;;;5016660;28;20022;-68
2023/04/04 02:44:17;;;;;;;4.72;2.17;;;9.50;68.80;;;;;;5016044;28;20112;-68
2023/04/04 02:46:43;;;;;;;4.35;1.77;;;9.50;68.90;;;;;;5016572;28;20049;-66
2023/04/04 02:49:08;;;;;;;4.15;2.10;;;9.40;69.00;;;;;;5016285;28;20057;-66
2023/04/04 02:51:34;;;;;;;3.83;1.75;;;9.40;69.40;;;;;;5016730;28;20030;-67
2023/04/04 02:54:01;;;;;;;4.35;1.85;;;9.40;69.40;;;;;;5016250;28;20037;-66
2023/04/04 02:56:27;;;;;;;4.20;2.13;;;9.40;69.40;;;;;;5016041;28;20463;-66
2023/04/04 02:58:53;;;;;;;4.35;1.90;;;9.40;69.20;;;;;;5016265;28;20030;-68
2023/04/04 03:01:18;;;;;;;4.20;1.65;;;9.40;69.10;;;;;;5016086;28;20537;-66
2023/04/04 03:03:45;;;;;;;3.60;1.90;;;9.40;69.40;;;;;;5015931;28;20029;-66
2023/04/04 03:06:10;;;;;;;3.75;1.60;;;9.40;69.30;;;;;;5016008;28;20490;-66
2023/04/04 03:08:36;;;;;;;3.72;2.05;;;9.30;69.60;;;;;;5016062;28;20054;-66
2023/04/04 03:11:02;;;;;;;4.72;2.13;;;9.30;69.30;;;;;;5015854;28;20566;-67
2023/04/04 03:13:27;;;;;;;5.85;2.40;;;9.30;69.30;;;;;;5016132;28;20014;-66
2023/04/04 03:16:02;;;;;;;4.88;1.73;;;9.30;69.20;;;;;;5015540;28;20038;-66
2023/04/04 03:18:28;;;;;;;7.47;2.35;;;9.30;69.30;;;;;;5015631;28;20018;-66
2023/04/04 03:20:54;;;;;;;4.82;2.40;;;9.30;69.60;;;;;;5015688;28;20083;-66
2023/04/04 03:23:19;;;;;;;4.30;1.88;;;9.30;69.70;;;;;;5015753;28;20033;-66
2023/04/04 03:25:45;;;;;;;6.93;2.20;;;9.30;69.90;;;;;;5015709;28;20396;-67
2023/04/04 03:28:11;;;;;;;3.67;1.83;;;9.20;69.90;;;;;;5015624;28;20471;-66
2023/04/04 03:30:37;;;;;;;6.88;2.03;;;9.20;69.80;;;;;;5015281;28;20475;-67
2023/04/04 03:33:06;;;;;;;5.43;1.95;;;9.20;69.90;;;;;;5015256;28;20069;-68
2023/04/04 03:35:32;;;;;;;4.72;2.38;;;9.20;70.00;;;;;;5015209;28;20032;-67
2023/04/04 03:38:01;;;;;;;3.53;1.70;;;9.10;69.80;;;;;;5015500;28;20093;-67
2023/04/04 03:40:26;;;;;;;5.28;1.80;;;9.20;69.60;;;;;;5015717;28;20026;-67
2023/04/04 03:42:52;;;;;;;7.40;1.98;;;9.10;69.40;;;;;;5015291;28;20014;-68
2023/04/04 03:45:17;;;;;;;5.80;2.15;;;9.10;69.70;;;;;;5015144;28;20455;-67
2023/04/04 03:47:43;;;;;;;9.00;1.92;;;9.10;69.90;;;;;;5014937;28;20038;-67
2023/04/04 03:50:09;;;;;;;4.90;1.80;;;9.10;69.70;;;;;;5015276;28;20461;-67
2023/04/04 03:52:38;;;;;;;6.43;1.70;;;9.10;69.80;;;;;;5015061;28;20427;-66
2023/04/04 03:55:06;;;;;;;4.68;2.03;;;9.10;70.00;;;;;;5015290;28;20014;-66
2023/04/04 03:57:32;;;;;;;4.30;1.98;;;9.10;69.90;;;;;;5014977;28;20022;-66
2023/04/04 03:59:57;;;;;;;7.25;2.13;;;9.00;70.20;;;;;;5014927;28;20125;-66
2023/04/04 04:02:23;;;;;;;4.28;1.90;;;9.00;70.40;;;;;;5014621;28;20518;-66
2023/04/04 04:04:49;;;;;;;5.07;2.00;;;9.00;70.30;;;;;;5015112;28;20049;-66
2023/04/04 04:07:14;;;;;;;5.30;2.33;;;9.00;70.30;;;;;;5014908;28;20061;-66
2023/04/04 04:09:40;;;;;;;6.00;2.38;;;9.00;70.30;;;;;;5014881;28;20387;-66
2023/04/04 04:12:06;;;;;;;5.15;2.17;;;9.00;70.30;;;;;;5014590;28;20475;-66
2023/04/04 04:14:32;;;;;;;5.10;2.25;;;9.00;70.50;;;;;;5014860;28;20475;-66
2023/04/04 04:16:57;;;;;;;4.70;2.20;;;8.90;70.70;;;;;;5014301;28;20095;-66
2023/04/04 04:19:23;;;;;;;7.65;2.63;;;8.90;71.50;;;;;;5012368;28;20110;-67
2023/04/04 04:21:48;;;;;;;2.92;1.95;;;8.90;70.70;;;;;;5010942;28;20022;-66
2023/04/04 04:24:14;;;;;;;6.22;2.92;;;8.90;71.00;;;;;;4995671;28;20061;-66
2023/04/04 04:26:40;;;;;;;6.10;2.67;;;8.90;70.90;;;;;;5012144;28;20353;-68
2023/04/04 04:29:06;;;;;;;7.45;2.63;;;8.90;71.00;;;;;;5013796;28;20103;-68
2023/04/04 04:31:32;;;;;;;6.53;2.67;;;8.80;71.10;;;;;;5013497;28;20040;-68
2023/04/04 04:33:57;;;;;;;5.78;2.78;;;8.80;71.20;;;;;;5013514;28;20025;-68
2023/04/04 04:36:23;;;;;;;6.20;3.45;;;8.80;71.40;;;;;;5011734;28;20387;-67
2023/04/04 04:38:48;;;;;;;6.25;2.80;;;8.90;71.20;;;;;;5010368;28;20049;-66
2023/04/04 04:41:14;;;;;;;8.52;2.80;;;8.80;71.20;;;;;;5012595;28;20026;-67
2023/04/04 04:43:40;;;;;;;10.30;3.25;;;8.80;71.30;;;;;;5012615;28;20020;-69
2023/04/04 04:46:07;;;;;;;8.18;3.13;;;8.70;71.50;;;;;;4993380;28;20030;-68
2023/04/04 04:48:33;;;;;;;7.65;2.83;;;8.80;71.50;;;;;;5013740;28;20018;-66
2023/04/04 04:50:59;;;;;;;4.53;2.75;;;8.70;71.50;;;;;;5013896;28;20040;-67
2023/04/04 04:53:24;;;;;;;5.65;2.55;;;8.70;71.70;;;;;;5010475;28;20101;-68
2023/04/04 04:55:51;;;;;;;5.35;2.70;;;8.70;71.70;;;;;;5012978;28;20037;-68
2023/04/04 04:58:20;;;;;;;5.20;2.60;;;8.70;71.70;;;;;;5013840;28;20050;-68
2023/04/04 05:00:45;;;;;;;4.00;2.50;;;8.70;71.70;;;;;;5011556;28;20029;-68
2023/04/04 05:03:11;;;;;;;6.38;2.28;;;8.70;71.70;;;;;;5012725;28;20405;-68
2023/04/04 05:05:37;;;;;;;7.93;2.38;;;8.70;71.60;;;;;;5012223;28;20474;-68
2023/04/04 05:08:03;;;;;;;7.72;2.65;;;8.50;72.20;;;;;;5011816;28;20112;-68
2023/04/04 05:10:29;;;;;;;6.60;2.72;;;8.60;71.90;;;;;;5013279;28;20383;-68
2023/04/04 05:12:55;;;;;;;2.95;2.38;;;8.60;71.80;;;;;;4996056;28;20029;-68
2023/04/04 05:15:20;;;;;;;5.32;2.80;;;8.60;71.80;;;;;;5012829;28;20033;-68
2023/04/04 05:17:46;;;;;;;5.95;2.20;;;8.60;71.80;;;;;;5012833;28;20026;-68
2023/04/04 05:20:12;;;;;;;8.65;2.75;;;8.50;71.80;;;;;;5012605;28;20364;-68
2023/04/04 05:22:44;;;;;;;6.03;2.63;;;8.60;71.90;;;;;;5012805;28;20029;-68
2023/04/04 05:25:11;;;;;;;28.25;4.45;;;8.50;71.90;;;;;;5012721;28;20472;-68
2023/04/04 05:27:37;;;;;;;9.80;2.80;;;8.50;72.00;;;;;;5012815;28;20030;-68
2023/04/04 05:30:03;;;;;;;6.43;2.67;;;8.60;71.70;;;;;;5011903;28;20029;-68
2023/04/04 05:32:28;;;;;;;6.38;2.60;;;8.50;71.40;;;;;;5012557;28;20033;-68
2023/04/04 05:34:54;;;;;;;8.05;2.47;;;8.50;71.30;;;;;;5012491;28;20079;-68
2023/04/04 05:37:19;;;;;;;4.55;2.45;;;8.50;71.30;;;;;;5012632;28;20055;-68
2023/04/04 05:39:45;;;;;;;7.60;3.10;;;8.50;71.50;;;;;;5009866;28;20022;-68
2023/04/04 05:42:11;;;;;;;6.68;2.90;;;8.50;71.60;;;;;;5011059;28;20030;-68
2023/04/04 05:44:37;;;;;;;6.90;2.28;;;8.50;71.50;;;;;;5009735;28;20037;-68
2023/04/04 05:47:02;;;;;;;8.32;3.25;;;8.50;71.60;;;;;;5009475;28;20033;-68
2023/04/04 05:49:28;;;;;;;6.13;2.58;;;8.50;71.70;;;;;;5011918;28;20072;-68
2023/04/04 05:51:56;;;;;;;8.00;3.33;;;8.40;71.90;;;;;;5012035;28;20487;-68
2023/04/04 05:54:22;;;;;;;12.27;3.00;;;8.40;72.10;;;;;;5012261;28;20057;-68
2023/04/04 05:56:47;;;;;;;4.82;2.42;;;8.50;72.00;;;;;;5012014;28;20050;-68
2023/04/04 05:59:13;;;;;;;6.45;2.88;;;8.50;72.20;;;;;;5009844;28;20079;-68
2023/04/04 06:01:39;;;;;;;6.55;2.65;;;8.40;72.50;;;;;;5012176;28;20029;-68
2023/04/04 06:04:05;;;;;;;7.35;3.13;;;8.40;72.40;;;;;;5011814;28;20085;-68
2023/04/04 06:06:32;;;;;;;8.32;3.08;;;8.40;72.40;;;;;;5012185;28;20036;-68
2023/04/04 06:08:57;;;;;;;7.45;3.13;;;8.40;72.50;;;;;;5012128;28;20053;-68
2023/04/04 06:11:23;;;;;;;7.05;3.13;;;8.30;72.60;;;;;;5011783;28;20072;-68
2023/04/04 06:13:49;;;;;;;6.85;3.25;;;8.40;72.90;;;;;;5011692;28;20058;-68
2023/04/04 06:16:15;;;;;;;9.57;3.47;;;8.40;72.80;;;;;;4970829;28;1117439;-68
2023/04/04 06:18:41;;;;;;;13.10;3.53;;;8.50;72.70;;;;;;5012461;28;20061;-68
2023/04/04 06:21:06;;;;;;;7.03;3.15;;;8.50;72.70;;;;;;5012535;28;20032;-68
2023/04/04 06:23:32;;;;;;;9.00;2.95;;;8.60;72.60;;;;;;5012924;28;20030;-69
2023/04/04 06:25:57;;;;;;;7.30;3.15;;;8.70;72.00;;;;;;5012723;28;20029;-68
2023/04/04 06:28:23;;;;;;;6.82;2.65;;;8.70;71.70;;;;;;5010178;28;20041;-68
2023/04/04 06:30:49;;;;;;;7.95;3.55;;;8.80;71.80;;;;;;5001155;28;20034;-68
2023/04/04 06:33:15;;;;;;;7.97;3.00;;;8.80;71.60;;;;;;5011719;28;20033;-68
2023/04/04 06:35:40;;;;;;;5.95;3.25;;;8.90;71.60;;;;;;5012433;28;20029;-68
2023/04/04 06:38:06;;;;;;;11.38;3.80;;;8.90;71.30;;;;;;5012426;28;20026;-68
2023/04/04 06:40:31;;;;;;;11.95;4.18;;;8.90;71.10;;;;;;5012406;28;20022;-69
2023/04/04 06:42:57;;;;;;;8.43;3.53;;;8.90;71.50;;;;;;5012163;28;20022;-68
2023/04/04 06:45:26;;;;;;;6.45;3.45;;;9.00;71.80;;;;;;5012306;28;20442;-68
2023/04/04 06:47:53;;;;;;;8.90;3.10;;;9.00;71.80;;;;;;5012395;28;20105;-68
2023/04/04 06:50:19;;;;;;;4.20;2.97;;;9.00;71.30;;;;;;5012274;28;20026;-69
2023/04/04 06:52:44;;;;;;;7.10;3.58;;;9.00;71.40;;;;;;5012202;28;20087;-68
2023/04/04 06:55:12;;;;;;;7.88;3.72;;;9.10;70.60;;;;;;5012335;28;20084;-68
2023/04/04 06:57:38;;;;;;;8.57;3.95;;;9.10;70.50;;;;;;5012413;28;20022;-68
2023/04/04 07:00:04;;;;;;;5.90;3.08;;;9.10;70.30;;;;;;5012596;28;20015;-68
2023/04/04 07:02:30;;;;;;;7.78;3.75;;;9.10;70.90;;;;;;5012280;28;20065;-68
2023/04/04 07:04:55;;;;;;;9.60;3.42;;;9.10;71.20;;;;;;5012089;28;20046;-69
2023/04/04 07:07:21;;;;;;;8.63;3.42;;;9.10;71.00;;;;;;5012258;28;20026;-68
2023/04/04 07:09:46;;;;;;;10.32;3.28;;;9.20;70.60;;;;;;5012363;28;20026;-68
2023/04/04 07:12:12;;;;;;;7.32;3.17;;;9.30;72.20;;;;;;5015610;28;20030;-68
2023/04/04 07:14:38;;;;;;;8.70;3.58;;;9.40;71.80;;;;;;5015912;28;20038;-68
2023/04/04 07:17:03;;;;;;;7.30;3.13;;;9.50;71.70;;;;;;5015825;28;20442;-69
2023/04/04 07:19:29;;;;;;;11.40;5.72;;;9.60;71.10;;;;;;5015931;28;20030;-68
2023/04/04 07:21:55;;;;;;;7.03;3.05;;;9.50;72.00;;;;;;5015688;28;20075;-68
2023/04/04 07:24:21;;;;;;;7.90;3.58;;;9.60;72.20;;;;;;5014086;28;20030;-68
2023/04/04 07:26:46;;;;;;;10.02;4.53;;;9.70;72.70;;;;;;5020310;28;21828;-68
2023/04/04 07:29:12;;;;;;;7.30;3.22;;;9.80;70.90;;;;;;5007685;28;20041;-68
2023/04/04 07:31:38;;;;;;;6.60;2.63;;;9.90;71.20;;;;;;5013712;28;20125;-68
2023/04/04 07:34:03;;;;;;;7.68;2.83;;;9.80;71.70;;;;;;5018643;28;20034;-68
2023/04/04 07:36:29;;;;;;;6.40;2.55;;;9.90;70.90;;;;;;4993014;28;20116;-69
2023/04/04 07:38:55;;;;;;;5.10;2.53;;;10.00;71.50;;;;;;5011884;28;20479;-68
2023/04/04 07:41:21;;;;;;;4.10;2.20;;;10.00;71.20;;;;;;5015274;28;20030;-68
2023/04/04 07:43:50;;;;;;;3.83;2.25;;;10.10;72.80;;;;;;5014865;28;20477;-68
2023/04/04 07:46:16;;;;;;;5.70;2.22;;;10.20;76.00;;;;;;5013913;28;20088;-68
2023/04/04 07:48:42;;;;;;;5.25;2.55;;;10.30;70.90;;;;;;5011968;28;20018;-68
2023/04/04 07:51:08;;;;;;;6.25;2.33;;;10.30;72.50;;;;;;5008590;28;20038;-68
2023/04/04 07:53:33;;;;;;;7.65;2.10;;;10.40;72.20;;;;;;5011459;28;20022;-68
2023/04/04 07:56:05;;;;;;;5.32;2.13;;;10.50;72.50;;;;;;5015715;28;20479;-71
2023/04/04 07:58:33;;;;;;;4.90;2.47;;;10.50;70.90;;;;;;5017797;28;20024;-71
2023/04/04 08:01:00;;;;;;;3.42;2.17;;;10.50;68.20;;;;;;5008553;28;20099;-71
2023/04/04 08:03:26;;;;;;;6.28;2.47;;;10.50;66.90;;;;;;5009170;28;20524;-72
2023/04/04 08:05:52;;;;;;;5.00;2.15;;;10.50;67.80;;;;;;5013486;28;20467;-72
2023/04/04 08:08:17;;;;;;;6.55;2.00;;;10.50;69.00;;;;;;5012295;28;20030;-71
2023/04/04 08:10:44;;;;;;;5.28;2.47;;;10.60;68.00;;;;;;5013746;28;20026;-72
2023/04/04 08:13:10;;;;;;;4.95;1.80;;;10.60;66.60;;;;;;5012580;28;20037;-72
2023/04/04 08:15:36;;;;;;;4.95;2.08;;;10.70;65.80;;;;;;5022824;28;20026;-72
2023/04/04 08:18:02;;;;;;;4.68;2.00;;;10.70;65.30;;;;;;5013246;28;20529;-71
2023/04/04 08:20:28;;;;;;;3.95;2.20;;;10.70;65.30;;;;;;5020009;28;20030;-71
2023/04/04 08:22:53;;;;;;;5.95;2.05;;;10.70;65.30;;;;;;5007292;28;20029;-71
2023/04/04 08:25:19;;;;;;;7.57;2.10;;;10.70;64.80;;;;;;5011389;28;20542;-69
2023/04/04 08:27:45;;;;;;;3.95;1.58;;;10.70;64.90;;;;;;5021458;28;20057;-69
2023/04/04 08:30:11;;;;;;;4.22;1.95;;;10.70;63.30;;;;;;5011977;28;20076;-69
2023/04/04 08:32:37;;;;;;;4.13;1.85;;;10.70;63.50;;;;;;5012578;28;20026;-69
2023/04/04 08:35:03;;;;;;;6.35;1.90;;;10.70;63.20;;;;;;5017148;28;20080;-69
2023/04/04 08:37:29;;;;;;;6.18;2.13;;;10.70;63.60;;;;;;5014835;28;20030;-71
2023/04/04 08:39:55;;;;;;;2.80;1.60;;;10.70;63.60;;;;;;5019392;28;20036;-71
2023/04/04 08:42:23;;;;;;;5.13;1.88;;;10.70;63.60;;;;;;5010372;28;20026;-70
2023/04/04 08:44:53;;;;;;;6.10;1.48;;;10.60;63.40;;;;;;4999297;28;20081;-71
2023/04/04 08:47:20;;;;;;;5.70;2.05;;;10.60;65.10;;;;;;5011538;28;20029;-71
2023/04/04 08:49:48;;;;;;;2.85;1.60;;;10.70;63.50;;;;;;5021284;28;20368;-70
2023/04/04 08:52:20;;;;;;;4.55;1.70;;;10.70;63.70;;;;;;5011073;28;20030;-71
2023/04/04 08:54:46;;;;;;;;;;;10.70;63.80;;;;;;5007279;28;20614;-70
2023/04/04 08:57:12;;;;;;;4.90;2.08;;;10.70;64.40;;;;;;5015037;28;20432;-70
2023/04/04 08:59:38;;;;;;;4.15;1.95;;;10.70;63.60;;;;;;5031199;28;20116;-72
2023/04/04 09:02:18;;;;;;;3.55;1.85;;;10.70;63.80;;;;;;5026301;28;20501;-72
2023/04/04 09:04:47;;;;;;;3.15;1.95;;;10.70;63.60;;;;;;5015928;28;20439;-72
2023/04/04 09:07:14;;;;;;;4.55;2.03;;;10.60;63.10;;;;;;5010566;28;20029;-72
2023/04/04 09:09:44;;;;;;;6.57;2.00;;;10.60;63.00;;;;;;5014999;28;20076;-72
2023/04/04 09:12:15;;;;;;;4.93;2.25;;;10.60;63.40;;;;;;5014541;28;20026;-72
2023/04/04 09:14:42;;;;;;;5.88;2.80;;;10.60;63.00;;;;;;5010926;28;20026;-72
2023/04/04 09:17:09;;;;;;;5.90;2.05;;;10.60;63.30;;;;;;5012017;28;20407;-73
2023/04/04 09:19:36;;;;;;;6.93;1.90;;;10.60;63.20;;;;;;5015466;28;20025;-71
2023/04/04 09:22:05;;;;;;;4.80;1.73;;;10.60;63.20;;;;;;5014663;28;21493;-70
2023/04/04 09:24:39;;;;;;;4.82;2.00;;;10.60;63.20;;;;;;5011965;28;20077;-70
2023/04/04 09:27:05;;;;;;;3.28;1.55;;;10.60;62.70;;;;;;5010644;28;20030;-73
2023/04/04 09:29:33;;;;;;;3.38;2.58;;;10.60;62.70;;;;;;4994781;28;20034;-74
2023/04/04 09:31:58;;;;;;;4.32;2.13;;;10.60;63.00;;;;;;5012842;28;20451;-70
2023/04/04 09:34:24;;;;;;;4.88;2.17;;;10.70;62.80;;;;;;5011327;28;20518;-72
2023/04/04 09:36:49;;;;;;;4.43;1.80;;;10.70;62.90;;;;;;5012580;28;20092;-73
2023/04/04 09:39:16;;;;;;;4.28;2.10;;;10.70;62.50;;;;;;5013208;28;20018;-72
2023/04/04 09:41:43;;;;;;;2.78;1.65;;;10.70;62.60;;;;;;5013265;28;20506;-71
2023/04/04 09:44:11;;;;;;;8.02;2.72;;;10.70;62.80;;;;;;5013188;28;20035;-72
2023/04/04 09:46:38;;;;;;;5.75;1.90;;;10.70;63.30;;;;;;5013102;28;20026;-73
2023/04/04 09:49:04;;;;;;;10.48;2.40;;;10.70;63.20;;;;;;5013243;28;20425;-72
2023/04/04 09:51:52;;;;;;;3.70;1.95;;;10.70;63.10;;;;;;5012734;28;20498;-73
2023/04/04 09:54:22;;;;;;;6.35;2.13;;;10.70;62.90;;;;;;5013006;28;20533;-72
2023/04/04 09:56:49;;;;;;;2.47;1.58;;;10.70;63.20;;;;;;5013048;28;20453;-71
2023/04/04 09:59:16;;;;;;;6.15;2.10;;;10.80;63.20;;;;;;5012197;28;20084;-72
2023/04/04 10:01:42;;;;;;;3.05;2.03;;;10.80;63.70;;;;;;5012601;28;20030;-72
2023/04/04 10:04:08;;;;;;;5.65;2.20;;;10.80;63.20;;;;;;5011112;28;20407;-72
2023/04/04 10:06:36;;;;;;;7.18;2.45;;;10.70;62.40;;;;;;5012901;28;20103;-70
2023/04/04 10:09:03;;;;;;;5.35;2.30;;;10.70;61.90;;;;;;5013010;28;20088;-73
2023/04/04 10:11:34;;;;;;;5.22;2.05;;;10.60;61.90;;;;;;5012676;28;20094;-74
2023/04/04 10:14:02;;;;;;;5.13;2.13;;;10.70;59.40;;;;;;5012880;28;20383;-72
2023/04/04 10:16:36;;;;;;;3.85;1.95;;;10.80;59.80;;;;;;5012495;28;20037;-73
2023/04/04 10:19:04;;;;;;;3.60;1.95;;;10.90;60.40;;;;;;5012549;28;20022;-73
2023/04/04 10:21:30;;;;;;;5.55;2.13;;;11.00;59.80;;;;;;5012737;28;20022;-74
2023/04/04 10:23:58;;;;;;;3.75;1.50;;;11.10;60.10;;;;;;5012754;28;20044;-71
2023/04/04 10:26:25;;;;;;;4.68;2.10;;;11.10;63.30;;;;;;5012544;28;20383;-75
2023/04/04 10:28:50;;;;;;;6.75;2.33;;;11.20;61.20;;;;;;5012669;28;20498;-72
2023/04/04 10:31:23;;;;;;;5.18;2.33;;;11.20;60.30;;;;;;5012723;28;20038;-74
2023/04/04 10:34:07;;;;;;;7.50;2.33;;;11.20;59.40;;;;;;5012614;28;20108;-73
2023/04/04 10:36:57;;;;;;;5.18;2.10;;;11.30;59.80;;;;;;5012517;28;20026;-73
2023/04/04 10:39:31;;;;;;;4.80;2.42;;;11.30;59.40;;;;;;5012723;28;20460;-75
2023/04/04 10:41:57;;;;;;;4.30;1.92;;;11.20;59.30;;;;;;5012383;28;20054;-74
2023/04/04 10:44:28;;;;;;;4.90;2.00;;;11.20;61.10;;;;;;5013088;28;20057;-72
2023/04/04 10:46:59;;;;;;;9.73;2.20;;;11.20;60.50;;;;;;5015977;28;20101;-73
2023/04/04 10:49:28;;;;;;;2.67;1.30;;;11.30;60.00;;;;;;5016220;28;20567;-74
2023/04/04 10:51:55;;;;;;;3.70;1.90;;;11.30;60.10;;;;;;5016489;28;20383;-73
2023/04/04 10:54:20;;;;;;;3.30;1.80;;;11.30;60.70;;;;;;5016429;28;20080;-71
2023/04/04 10:56:46;;;;;;;5.60;2.45;;;11.30;60.60;;;;;;5015921;28;20025;-76
2023/04/04 10:59:15;;;;;;;5.03;2.00;;;11.30;60.10;;;;;;5016179;28;20092;-76
2023/04/04 11:01:54;;;;;;;4.35;2.10;;;11.30;60.00;;;;;;5016029;28;20141;-74
2023/04/04 11:04:27;;;;;;;5.28;3.30;;;11.30;60.30;;;;;;5016109;28;20099;-74
2023/04/04 11:07:09;;;;;;;3.65;1.95;;;11.30;60.90;;;;;;5015967;28;20022;-73
2023/04/04 11:09:53;;;;;;;5.15;3.60;;;11.30;60.90;;;;;;5016011;28;20030;-74
2023/04/04 11:12:30;;;;;;;4.78;2.22;;;11.30;61.20;;;;;;5015975;28;20041;-74
2023/04/04 11:14:57;;;;;;;8.25;1.83;;;11.30;63.40;;;;;;5015941;28;20032;-72
2023/04/04 11:17:47;;;;;;;6.72;2.20;;;11.30;61.40;;;;;;5015402;28;20125;-76
2023/04/04 11:20:22;;;;;;;7.10;1.83;;;11.30;61.80;;;;;;5015628;28;20050;-75
2023/04/04 11:23:09;;;;;;;7.75;1.95;;;11.30;63.30;;;;;;5015651;28;20034;-69
2023/04/04 11:25:36;;;;;;;4.43;1.90;;;11.40;62.00;;;;;;5015677;28;20550;-75
2023/04/04 11:28:13;;;;;;;4.10;2.40;;;11.40;62.00;;;;;;5015771;28;20021;-73
2023/04/04 11:30:47;;;;;;;6.20;4.45;;;11.40;61.60;;;;;;5015101;28;20030;-76
2023/04/04 11:33:23;;;;;;;5.32;2.55;;;11.30;62.20;;;;;;5015461;28;20022;-72
2023/04/04 11:35:49;;;;;;;3.95;1.98;;;11.40;61.80;;;;;;5015679;28;20430;-72
2023/04/04 11:38:15;;;;;;;5.45;2.25;;;11.40;62.60;;;;;;5015553;28;20118;-72
2023/04/04 11:40:51;;;;;;;4.97;1.95;;;11.40;61.90;;;;;;5015501;28;20022;-71
2023/04/04 11:43:19;;;;;;;5.40;2.78;;;11.40;61.60;;;;;;5015271;28;20047;-71
2023/04/04 11:45:45;;;;;;;3.85;1.95;;;11.40;61.60;;;;;;5015091;28;20037;-77
2023/04/04 11:48:13;;;;;;;3.50;2.10;;;11.40;63.90;;;;;;5015160;28;20026;-76
2023/04/04 11:50:41;;;;;;;5.32;2.20;;;11.40;62.90;;;;;;5015071;28;20049;-76
2023/04/04 11:53:11;;;;;;;4.20;1.48;;;11.40;61.60;;;;;;5015102;28;20029;-73
2023/04/04 11:55:46;;;;;;;6.30;2.10;;;11.40;64.00;;;;;;5014893;28;20026;-74
2023/04/04 11:58:17;;;;;;;8.73;4.65;;;11.40;62.10;;;;;;5015292;28;20061;-74
2023/04/04 12:00:45;;;;;;;6.47;2.55;;;11.50;61.70;;;;;;5014692;28;20036;-75
2023/04/04 12:03:13;;;;;;;6.25;2.90;;;11.50;61.00;;;;;;5015064;28;20109;-76
2023/04/04 12:05:42;;;;;;;4.28;2.13;;;11.50;61.10;;;;;;5014841;28;20089;-72
2023/04/04 12:08:09;;;;;;;5.18;2.03;;;11.50;61.00;;;;;;5014800;28;20069;-77
2023/04/04 12:10:36;;;;;;;4.53;1.98;;;11.50;60.60;;;;;;5013510;28;20487;-75
2023/04/04 12:13:06;;;;;;;4.43;2.00;;;11.50;61.60;;;;;;5013522;28;20083;-71
2023/04/04 12:15:33;;;;;;;5.65;2.17;;;11.50;60.80;;;;;;4996951;28;20479;-73
2023/04/04 12:17:59;;;;;;;4.35;2.40;;;11.50;63.10;;;;;;5014463;28;20049;-72
2023/04/04 12:20:25;;;;;;;3.85;2.20;;;11.50;62.10;;;;;;5014681;28;20026;-72
2023/04/04 12:22:51;;;;;;;6.65;2.00;;;11.50;61.60;;;;;;5014699;28;20053;-73
2023/04/04 12:25:22;;;;;;;3.22;1.80;;;11.50;61.30;;;;;;5014563;28;20033;-71
2023/04/04 12:27:49;;;;;;;4.05;2.50;;;11.50;60.90;;;;;;5014489;28;20022;-72
2023/04/04 12:30:16;;;;;;;3.80;2.13;;;11.50;62.40;;;;;;5014043;28;20387;-72
2023/04/04 12:32:46;;;;;;;5.85;2.20;;;11.50;61.30;;;;;;5014568;28;20026;-77
2023/04/04 12:35:14;;;;;;;6.72;2.90;;;11.50;62.70;;;;;;5014344;28;20033;-71
2023/04/04 12:38:05;;;;;;;6.80;2.20;;;11.50;62.80;;;;;;5014607;28;20022;-73
2023/04/04 12:40:35;;;;;;;3.45;2.38;;;11.60;62.20;;;;;;5013041;28;20024;-76
2023/04/04 12:43:03;;;;;;;7.60;2.60;;;11.60;61.10;;;;;;5014222;28;20095;-76
2023/04/04 12:45:29;;;;;;;3.90;2.00;;;11.60;61.90;;;;;;5014036;28;20030;-74
2023/04/04 12:47:57;;;;;;;6.90;2.33;;;11.60;61.60;;;;;;5013054;28;20026;-73
2023/04/04 12:50:26;;;;;;;4.88;2.47;;;11.60;61.10;;;;;;5013856;28;20018;-71
2023/04/04 12:52:55;;;;;;;5.63;2.45;;;11.50;63.80;;;;;;5014289;28;20109;-71